Time,TemperatureF,DewpointF,PressureIn,WindDirection,WindDirectionDegrees,WindSpeedMPH,WindSpeedGustMPH,Humidity,HourlyPrecipIn,Conditions,Clouds,dailyrainin,SoftwareType,DateUTC
2013-04-02 00:00:00,27.3,21.0,29.02,West,270,7.0,12.0,72,0.00,,,0.00,Rainwise IP-100,2013-04-02 04:00:00,
2013-04-02 00:01:00,27.4,21.0,29.02,WSW,247,7.0,12.0,72,0.00,,,0.00,Rainwise IP-100,2013-04-02 04:01:00,
2013-04-02 00:06:00,27.2,21.0,29.02,West,270,9.0,14.0,73,0.00,,,0.00,Rainwise IP-100,2013-04-02 04:06:00,
2013-04-02 00:11:00,27.4,21.0,29.02,West,270,9.0,15.0,72,0.00,,,0.00,Rainwise IP-100,2013-04-02 04:11:00,
2013-04-02 00:16:00,27.1,21.0,29.02,West,270,5.0,13.0,72,0.00,,,0.00,Rainwise IP-100,2013-04-02 04:16:00,
2013-04-02 00:21:00,27.0,21.0,29.02,WSW,247,6.0,16.0,72,0.00,,,0.00,Rainwise IP-100,2013-04-02 04:21:00,
2013-04-02 00:26:00,26.8,21.0,29.02,WSW,247,5.0,11.0,73,0.00,,,0.00,Rainwise IP-100,2013-04-02 04:26:00,
2013-04-02 00:31:00,26.7,21.0,29.03,West,270,6.0,12.0,73,0.00,,,0.00,Rainwise IP-100,2013-04-02 04:31:00,
2013-04-02 00:36:00,26.9,21.0,29.02,WNW,292,11.0,13.0,73,0.00,,,0.00,Rainwise IP-100,2013-04-02 04:36:00,
2013-04-02 00:41:00,26.9,21.0,29.03,WNW,292,12.0,14.0,74,0.00,,,0.00,Rainwise IP-100,2013-04-02 04:41:00,
2013-04-02 00:46:00,27.3,21.0,29.02,West,270,9.0,17.0,73,0.00,,,0.00,Rainwise IP-100,2013-04-02 04:46:00,
2013-04-02 00:51:00,27.2,21.0,29.03,WSW,247,5.0,19.0,75,0.00,,,0.00,Rainwise IP-100,2013-04-02 04:51:00,
2013-04-02 00:56:00,26.9,21.0,29.03,West,270,4.0,19.0,74,0.00,,,0.00,Rainwise IP-100,2013-04-02 04:56:00,
2013-04-02 01:01:00,26.7,21.0,29.03,West,270,6.0,12.0,76,0.00,,,0.00,Rainwise IP-100,2013-04-02 05:01:00,
2013-04-02 01:06:00,26.6,23.0,29.03,West,270,9.0,13.0,77,0.00,,,0.00,Rainwise IP-100,2013-04-02 05:06:00,
2013-04-02 01:11:00,26.4,21.0,29.04,West,270,4.0,11.0,77,0.00,,,0.00,Rainwise IP-100,2013-04-02 05:11:00,
2013-04-02 01:16:00,26.2,21.0,29.04,WSW,247,6.0,11.0,78,0.00,,,0.00,Rainwise IP-100,2013-04-02 05:16:00,
2013-04-02 01:21:00,25.9,21.0,29.04,West,270,10.0,10.0,78,0.00,,,0.00,Rainwise IP-100,2013-04-02 05:21:00,
2013-04-02 01:26:00,25.9,21.0,29.04,West,270,6.0,11.0,77,0.00,,,0.00,Rainwise IP-100,2013-04-02 05:26:00,
2013-04-02 01:31:00,25.9,21.0,29.04,West,270,4.0,11.0,77,0.00,,,0.00,Rainwise IP-100,2013-04-02 05:31:00,
2013-04-02 01:36:00,25.5,21.0,29.04,West,270,4.0,7.0,79,0.00,,,0.00,Rainwise IP-100,2013-04-02 05:36:00,
2013-04-02 01:41:00,25.2,21.0,29.04,West,270,4.0,9.0,79,0.00,,,0.00,Rainwise IP-100,2013-04-02 05:41:00,
2013-04-02 01:46:00,25.2,21.0,29.04,WSW,247,4.0,10.0,79,0.00,,,0.00,Rainwise IP-100,2013-04-02 05:46:00,
2013-04-02 01:51:00,25.3,21.0,29.04,West,270,7.0,12.0,78,0.00,,,0.00,Rainwise IP-100,2013-04-02 05:51:00,
2013-04-02 01:56:00,25.4,21.0,29.04,WSW,247,5.0,11.0,76,0.00,,,0.00,Rainwise IP-100,2013-04-02 05:56:00,
2013-04-02 02:01:00,25.3,21.0,29.04,WSW,247,3.0,9.0,76,0.00,,,0.00,Rainwise IP-100,2013-04-02 06:01:00,
2013-04-02 02:06:00,25.2,21.0,29.04,WSW,247,4.0,10.0,75,0.00,,,0.00,Rainwise IP-100,2013-04-02 06:06:00,
2013-04-02 02:11:00,25.2,18.0,29.04,WSW,247,7.0,12.0,74,0.00,,,0.00,Rainwise IP-100,2013-04-02 06:11:00,
2013-04-02 02:16:00,25.1,18.0,29.03,WSW,247,7.0,10.0,74,0.00,,,0.00,Rainwise IP-100,2013-04-02 06:16:00,
2013-04-02 02:21:00,25.0,18.0,29.04,WSW,247,4.0,10.0,73,0.00,,,0.00,Rainwise IP-100,2013-04-02 06:21:00,
2013-04-02 02:26:00,24.9,18.0,29.03,West,270,9.0,12.0,73,0.00,,,0.00,Rainwise IP-100,2013-04-02 06:26:00,
2013-04-02 02:31:00,25.3,18.0,29.03,WSW,247,10.0,14.0,72,0.00,,,0.00,Rainwise IP-100,2013-04-02 06:31:00,
2013-04-02 02:37:00,25.1,18.0,29.03,West,270,6.0,11.0,72,0.00,,,0.00,Rainwise IP-100,2013-04-02 06:37:00,
2013-04-02 02:42:00,25.6,18.0,29.03,WSW,247,9.0,19.0,70,0.00,,,0.00,Rainwise IP-100,2013-04-02 06:42:00,
2013-04-02 02:47:00,25.4,18.0,29.03,WSW,247,7.0,14.0,70,0.00,,,0.00,Rainwise IP-100,2013-04-02 06:47:00,
2013-04-02 02:52:00,25.4,18.0,29.03,West,270,7.0,18.0,70,0.00,,,0.00,Rainwise IP-100,2013-04-02 06:52:00,
2013-04-02 02:57:00,25.5,18.0,29.03,WSW,247,6.0,18.0,71,0.00,,,0.00,Rainwise IP-100,2013-04-02 06:57:00,
2013-04-02 03:02:00,25.7,18.0,29.03,WSW,247,15.0,19.0,71,0.00,,,0.00,Rainwise IP-100,2013-04-02 07:02:00,
2013-04-02 03:07:00,25.4,18.0,29.03,WSW,247,7.0,15.0,71,0.00,,,0.00,Rainwise IP-100,2013-04-02 07:07:00,
2013-04-02 03:12:00,25.5,18.0,29.03,West,270,14.0,17.0,70,0.00,,,0.00,Rainwise IP-100,2013-04-02 07:12:00,
2013-04-02 03:17:00,25.1,18.0,29.03,WSW,247,17.0,17.0,71,0.00,,,0.00,Rainwise IP-100,2013-04-02 07:17:00,
2013-04-02 03:22:00,25.1,18.0,29.03,WSW,247,7.0,20.0,70,0.00,,,0.00,Rainwise IP-100,2013-04-02 07:22:00,
2013-04-02 03:27:00,25.3,18.0,29.03,WSW,247,8.0,17.0,69,0.00,,,0.00,Rainwise IP-100,2013-04-02 07:27:00,
2013-04-02 03:32:00,25.2,18.0,29.03,West,270,11.0,19.0,70,0.00,,,0.00,Rainwise IP-100,2013-04-02 07:32:00,
2013-04-02 03:37:00,25.3,18.0,29.03,West,270,12.0,21.0,69,0.00,,,0.00,Rainwise IP-100,2013-04-02 07:37:00,
2013-04-02 03:42:00,25.2,18.0,29.03,West,270,7.0,17.0,69,0.00,,,0.00,Rainwise IP-100,2013-04-02 07:42:00,
2013-04-02 03:47:00,25.1,18.0,29.03,West,270,4.0,17.0,69,0.00,,,0.00,Rainwise IP-100,2013-04-02 07:47:00,
2013-04-02 03:52:00,25.1,18.0,29.03,West,270,12.0,17.0,69,0.00,,,0.00,Rainwise IP-100,2013-04-02 07:52:00,
2013-04-02 03:57:00,24.8,18.0,29.03,WSW,247,11.0,14.0,71,0.00,,,0.00,Rainwise IP-100,2013-04-02 07:57:00,
2013-04-02 04:02:00,24.8,18.0,29.03,WSW,247,8.0,13.0,74,0.00,,,0.00,Rainwise IP-100,2013-04-02 08:02:00,
2013-04-02 04:07:00,24.6,21.0,29.03,SW,225,9.0,12.0,78,0.00,,,0.00,Rainwise IP-100,2013-04-02 08:07:00,
2013-04-02 04:12:00,24.2,18.0,29.03,SW,225,2.0,11.0,79,0.00,,,0.00,Rainwise IP-100,2013-04-02 08:12:00,
2013-04-02 04:17:00,23.9,18.0,29.03,SW,225,4.0,8.0,80,0.00,,,0.00,Rainwise IP-100,2013-04-02 08:17:00,
2013-04-02 04:22:00,23.8,18.0,29.03,SW,225,7.0,8.0,80,0.00,,,0.00,Rainwise IP-100,2013-04-02 08:22:00,
2013-04-02 04:27:00,24.0,18.0,29.03,SW,225,3.0,10.0,78,0.00,,,0.00,Rainwise IP-100,2013-04-02 08:27:00,
2013-04-02 04:32:00,24.2,18.0,29.03,SW,225,4.0,12.0,76,0.00,,,0.00,Rainwise IP-100,2013-04-02 08:32:00,
2013-04-02 04:37:00,24.4,18.0,29.03,SW,225,9.0,11.0,74,0.00,,,0.00,Rainwise IP-100,2013-04-02 08:37:00,
2013-04-02 04:42:00,24.6,18.0,29.03,WSW,247,6.0,11.0,72,0.00,,,0.00,Rainwise IP-100,2013-04-02 08:42:00,
2013-04-02 04:47:00,24.9,18.0,29.03,WSW,247,7.0,19.0,69,0.00,,,0.00,Rainwise IP-100,2013-04-02 08:47:00,
2013-04-02 04:52:00,24.9,18.0,29.03,WSW,247,9.0,13.0,71,0.00,,,0.00,Rainwise IP-100,2013-04-02 08:52:00,
2013-04-02 04:57:00,25.1,18.0,29.03,WSW,247,8.0,14.0,71,0.00,,,0.00,Rainwise IP-100,2013-04-02 08:57:00,
2013-04-02 05:02:00,25.1,18.0,29.04,WSW,247,14.0,14.0,70,0.00,,,0.00,Rainwise IP-100,2013-04-02 09:02:00,
2013-04-02 05:07:00,25.1,18.0,29.04,WSW,247,5.0,14.0,70,0.00,,,0.00,Rainwise IP-100,2013-04-02 09:07:00,
2013-04-02 05:12:00,25.1,18.0,29.04,WSW,247,7.0,16.0,69,0.00,,,0.00,Rainwise IP-100,2013-04-02 09:12:00,
2013-04-02 05:17:00,24.9,18.0,29.04,SW,225,7.0,14.0,69,0.00,,,0.00,Rainwise IP-100,2013-04-02 09:17:00,
2013-04-02 05:22:00,24.9,18.0,29.04,WSW,247,7.0,16.0,69,0.00,,,0.00,Rainwise IP-100,2013-04-02 09:22:00,
2013-04-02 05:27:00,24.8,16.0,29.04,WSW,247,13.0,19.0,67,0.00,,,0.00,Rainwise IP-100,2013-04-02 09:27:00,
2013-04-02 05:32:00,24.7,18.0,29.04,WSW,247,7.0,17.0,68,0.00,,,0.00,Rainwise IP-100,2013-04-02 09:32:00,
2013-04-02 05:37:00,24.5,18.0,29.04,WSW,247,8.0,13.0,69,0.00,,,0.00,Rainwise IP-100,2013-04-02 09:37:00,
2013-04-02 05:42:00,24.6,18.0,29.04,WSW,247,14.0,18.0,68,0.00,,,0.00,Rainwise IP-100,2013-04-02 09:42:00,
2013-04-02 05:47:00,24.5,18.0,29.04,WSW,247,7.0,19.0,69,0.00,,,0.00,Rainwise IP-100,2013-04-02 09:47:00,
2013-04-02 05:52:00,24.4,16.0,29.04,WSW,247,10.0,14.0,69,0.00,,,0.00,Rainwise IP-100,2013-04-02 09:52:00,
2013-04-02 05:57:00,24.0,16.0,29.04,WSW,247,6.0,14.0,70,0.00,,,0.00,Rainwise IP-100,2013-04-02 09:57:00,
2013-04-02 06:02:00,23.9,16.0,29.04,WSW,247,14.0,14.0,70,0.00,,,0.00,Rainwise IP-100,2013-04-02 10:02:00,
2013-04-02 06:07:00,23.8,16.0,29.04,WSW,247,10.0,19.0,70,0.00,,,0.00,Rainwise IP-100,2013-04-02 10:07:00,
2013-04-02 06:12:00,23.6,16.0,29.04,West,270,7.0,12.0,70,0.00,,,0.00,Rainwise IP-100,2013-04-02 10:12:00,
2013-04-02 06:17:00,23.5,16.0,29.05,WSW,247,6.0,16.0,70,0.00,,,0.00,Rainwise IP-100,2013-04-02 10:17:00,
2013-04-02 06:22:00,23.4,14.0,29.05,WSW,247,11.0,12.0,70,0.00,,,0.00,Rainwise IP-100,2013-04-02 10:22:00,
2013-04-02 06:27:00,23.4,14.0,29.05,WSW,247,11.0,16.0,69,0.00,,,0.00,Rainwise IP-100,2013-04-02 10:27:00,
2013-04-02 06:32:00,23.2,14.0,29.05,WSW,247,6.0,17.0,70,0.00,,,0.00,Rainwise IP-100,2013-04-02 10:32:00,
2013-04-02 06:37:00,23.5,16.0,29.04,WSW,247,11.0,19.0,68,0.00,,,0.00,Rainwise IP-100,2013-04-02 10:37:00,
2013-04-02 06:42:00,23.5,16.0,29.05,SW,225,9.0,16.0,68,0.00,,,0.00,Rainwise IP-100,2013-04-02 10:42:00,
2013-04-02 06:47:00,23.3,14.0,29.05,West,270,1.0,15.0,68,0.00,,,0.00,Rainwise IP-100,2013-04-02 10:47:00,
2013-04-02 06:52:00,23.3,14.0,29.05,WSW,247,9.0,14.0,68,0.00,,,0.00,Rainwise IP-100,2013-04-02 10:52:00,
2013-04-02 06:57:00,23.2,14.0,29.05,WSW,247,5.0,14.0,68,0.00,,,0.00,Rainwise IP-100,2013-04-02 10:57:00,
2013-04-02 07:02:00,23.3,14.0,29.06,WSW,247,9.0,14.0,67,0.00,,,0.00,Rainwise IP-100,2013-04-02 11:02:00,
2013-04-02 07:07:00,23.2,14.0,29.06,WSW,247,7.0,12.0,68,0.00,,,0.00,Rainwise IP-100,2013-04-02 11:07:00,
2013-04-02 07:12:00,23.5,16.0,29.06,WSW,247,9.0,16.0,67,0.00,,,0.00,Rainwise IP-100,2013-04-02 11:12:00,
2013-04-02 07:17:00,23.5,16.0,29.06,WSW,247,7.0,13.0,67,0.00,,,0.00,Rainwise IP-100,2013-04-02 11:17:00,
2013-04-02 07:22:00,23.5,16.0,29.06,WSW,247,7.0,11.0,67,0.00,,,0.00,Rainwise IP-100,2013-04-02 11:22:00,
2013-04-02 07:27:00,23.6,16.0,29.07,WSW,247,7.0,13.0,67,0.00,,,0.00,Rainwise IP-100,2013-04-02 11:27:00,
2013-04-02 07:32:00,23.8,16.0,29.07,WSW,247,9.0,14.0,66,0.00,,,0.00,Rainwise IP-100,2013-04-02 11:32:00,
2013-04-02 07:37:00,23.9,16.0,29.07,SW,225,6.0,12.0,66,0.00,,,0.00,Rainwise IP-100,2013-04-02 11:37:00,
2013-04-02 07:42:00,23.9,16.0,29.08,West,270,6.0,11.0,67,0.00,,,0.00,Rainwise IP-100,2013-04-02 11:42:00,
2013-04-02 07:47:00,24.2,16.0,29.07,WSW,247,7.0,14.0,66,0.00,,,0.00,Rainwise IP-100,2013-04-02 11:47:00,
2013-04-02 07:52:00,24.3,16.0,29.08,WSW,247,11.0,17.0,66,0.00,,,0.00,Rainwise IP-100,2013-04-02 11:52:00,
2013-04-02 07:57:00,24.5,16.0,29.08,WSW,247,9.0,18.0,66,0.00,,,0.00,Rainwise IP-100,2013-04-02 11:57:00,
2013-04-02 08:02:00,24.6,16.0,29.08,WSW,247,8.0,17.0,65,0.00,,,0.00,Rainwise IP-100,2013-04-02 12:02:00,
2013-04-02 08:07:00,24.8,16.0,29.08,West,270,9.0,16.0,66,0.00,,,0.00,Rainwise IP-100,2013-04-02 12:07:00,
2013-04-02 08:12:00,25.0,16.0,29.08,West,270,11.0,17.0,67,0.00,,,0.00,Rainwise IP-100,2013-04-02 12:12:00,
2013-04-02 08:17:00,25.3,16.0,29.09,WSW,247,13.0,17.0,66,0.00,,,0.00,Rainwise IP-100,2013-04-02 12:17:00,
2013-04-02 08:22:00,25.4,16.0,29.09,SW,225,11.0,15.0,66,0.00,,,0.00,Rainwise IP-100,2013-04-02 12:22:00,
2013-04-02 08:27:00,25.7,16.0,29.10,West,270,7.0,15.0,67,0.00,,,0.00,Rainwise IP-100,2013-04-02 12:27:00,
2013-04-02 08:33:00,25.8,16.0,29.10,West,270,12.0,20.0,66,0.00,,,0.00,Rainwise IP-100,2013-04-02 12:33:00,
2013-04-02 08:38:00,25.5,16.0,29.10,West,270,8.0,16.0,67,0.00,,,0.00,Rainwise IP-100,2013-04-02 12:38:00,
2013-04-02 08:43:00,25.9,16.0,29.10,West,270,13.0,19.0,64,0.00,,,0.00,Rainwise IP-100,2013-04-02 12:43:00,
2013-04-02 08:48:00,26.3,16.0,29.09,WSW,247,14.0,18.0,63,0.00,,,0.00,Rainwise IP-100,2013-04-02 12:48:00,
2013-04-02 08:53:00,26.5,16.0,29.10,WSW,247,9.0,21.0,62,0.00,,,0.00,Rainwise IP-100,2013-04-02 12:53:00,
2013-04-02 08:58:00,26.5,16.0,29.09,WSW,247,10.0,21.0,61,0.00,,,0.00,Rainwise IP-100,2013-04-02 12:58:00,
2013-04-02 09:03:00,26.6,16.0,29.10,West,270,13.0,22.0,63,0.00,,,0.00,Rainwise IP-100,2013-04-02 13:03:00,
2013-04-02 09:08:00,26.7,16.0,29.10,WSW,247,12.0,19.0,61,0.00,,,0.00,Rainwise IP-100,2013-04-02 13:08:00,
2013-04-02 09:13:00,26.8,16.0,29.10,WSW,247,11.0,21.0,61,0.00,,,0.00,Rainwise IP-100,2013-04-02 13:13:00,
2013-04-02 09:18:00,27.1,16.0,29.10,West,270,15.0,20.0,62,0.00,,,0.00,Rainwise IP-100,2013-04-02 13:18:00,
2013-04-02 09:23:00,27.2,16.0,29.11,WSW,247,14.0,22.0,60,0.00,,,0.00,Rainwise IP-100,2013-04-02 13:23:00,
2013-04-02 09:28:00,27.5,16.0,29.10,West,270,11.0,21.0,62,0.00,,,0.00,Rainwise IP-100,2013-04-02 13:28:00,
2013-04-02 09:33:00,27.8,16.0,29.11,West,270,11.0,18.0,60,0.00,,,0.00,Rainwise IP-100,2013-04-02 13:33:00,
2013-04-02 09:38:00,27.7,16.0,29.11,WSW,247,15.0,21.0,60,0.00,,,0.00,Rainwise IP-100,2013-04-02 13:38:00,
2013-04-02 09:43:00,28.3,16.0,29.11,WSW,247,6.0,18.0,61,0.00,,,0.00,Rainwise IP-100,2013-04-02 13:43:00,
2013-04-02 09:48:00,28.2,16.0,29.10,West,270,11.0,16.0,61,0.00,,,0.00,Rainwise IP-100,2013-04-02 13:48:00,
2013-04-02 09:53:00,28.3,16.0,29.11,West,270,12.0,21.0,57,0.00,,,0.00,Rainwise IP-100,2013-04-02 13:53:00,
2013-04-02 09:58:00,28.8,16.0,29.11,WSW,247,11.0,17.0,59,0.00,,,0.00,Rainwise IP-100,2013-04-02 13:58:00,
2013-04-02 10:03:00,28.7,16.0,29.11,WSW,247,8.0,19.0,59,0.00,,,0.00,Rainwise IP-100,2013-04-02 14:03:00,
2013-04-02 10:08:00,29.0,16.0,29.11,West,270,17.0,19.0,56,0.00,,,0.00,Rainwise IP-100,2013-04-02 14:08:00,
2013-04-02 10:13:00,29.4,16.0,29.11,WSW,247,15.0,19.0,59,0.00,,,0.00,Rainwise IP-100,2013-04-02 14:13:00,
2013-04-02 10:18:00,28.8,16.0,29.11,West,270,11.0,19.0,58,0.00,,,0.00,Rainwise IP-100,2013-04-02 14:18:00,
2013-04-02 10:23:00,29.6,18.0,29.11,WSW,247,14.0,18.0,59,0.00,,,0.00,Rainwise IP-100,2013-04-02 14:23:00,
2013-04-02 10:28:00,28.9,16.0,29.11,WSW,247,14.0,22.0,59,0.00,,,0.00,Rainwise IP-100,2013-04-02 14:28:00,
2013-04-02 10:33:00,29.5,18.0,29.11,WSW,247,12.0,18.0,58,0.00,,,0.00,Rainwise IP-100,2013-04-02 14:33:00,
2013-04-02 10:38:00,29.8,18.0,29.11,West,270,14.0,21.0,60,0.00,,,0.00,Rainwise IP-100,2013-04-02 14:38:00,
2013-04-02 10:43:00,29.9,18.0,29.11,West,270,16.0,22.0,57,0.00,,,0.00,Rainwise IP-100,2013-04-02 14:43:00,
2013-04-02 10:48:00,30.0,18.0,29.11,WSW,247,9.0,19.0,59,0.00,,,0.00,Rainwise IP-100,2013-04-02 14:48:00,
2013-04-02 10:53:00,29.8,18.0,29.12,SSW,202,9.0,21.0,57,0.00,,,0.00,Rainwise IP-100,2013-04-02 14:53:00,
2013-04-02 10:58:00,30.1,18.0,29.11,WSW,247,9.0,22.0,56,0.00,,,0.00,Rainwise IP-100,2013-04-02 14:58:00,
2013-04-02 11:03:00,30.2,18.0,29.11,West,270,15.0,21.0,57,0.00,,,0.00,Rainwise IP-100,2013-04-02 15:03:00,
2013-04-02 11:08:00,29.8,18.0,29.12,West,270,16.0,20.0,58,0.00,,,0.00,Rainwise IP-100,2013-04-02 15:08:00,
2013-04-02 11:13:00,30.2,18.0,29.12,WSW,247,10.0,20.0,56,0.00,,,0.00,Rainwise IP-100,2013-04-02 15:13:00,
2013-04-02 11:18:00,31.1,16.0,29.11,WSW,247,18.0,24.0,55,0.00,,,0.00,Rainwise IP-100,2013-04-02 15:18:00,
2013-04-02 11:23:00,31.0,18.0,29.12,West,270,9.0,22.0,57,0.00,,,0.00,Rainwise IP-100,2013-04-02 15:23:00,
2013-04-02 11:28:00,31.6,21.0,29.12,WSW,247,12.0,17.0,60,0.00,,,0.00,Rainwise IP-100,2013-04-02 15:28:00,
2013-04-02 11:33:00,31.3,18.0,29.12,WSW,247,19.0,23.0,58,0.00,,,0.00,Rainwise IP-100,2013-04-02 15:33:00,
2013-04-02 11:38:00,32.1,21.0,29.12,WSW,247,11.0,26.0,60,0.00,,,0.00,Rainwise IP-100,2013-04-02 15:38:00,
2013-04-02 11:43:00,31.9,18.0,29.12,WSW,247,11.0,18.0,58,0.00,,,0.00,Rainwise IP-100,2013-04-02 15:43:00,
2013-04-02 11:48:00,30.9,16.0,29.12,WSW,247,10.0,24.0,53,0.00,,,0.00,Rainwise IP-100,2013-04-02 15:48:00,
2013-04-02 11:53:00,31.4,16.0,29.12,West,270,14.0,21.0,54,0.00,,,0.00,Rainwise IP-100,2013-04-02 15:53:00,
2013-04-02 11:58:00,32.4,18.0,29.12,West,270,14.0,20.0,55,0.00,,,0.00,Rainwise IP-100,2013-04-02 15:58:00,
2013-04-02 12:03:00,31.3,16.0,29.12,West,270,15.0,26.0,54,0.00,,,0.00,Rainwise IP-100,2013-04-02 16:03:00,
2013-04-02 12:08:00,31.5,18.0,29.11,WSW,247,17.0,26.0,56,0.00,,,0.00,Rainwise IP-100,2013-04-02 16:08:00,
2013-04-02 12:13:00,31.3,18.0,29.12,WSW,247,12.0,24.0,58,0.00,,,0.00,Rainwise IP-100,2013-04-02 16:13:00,
2013-04-02 12:18:00,31.7,21.0,29.12,NW,315,15.0,21.0,61,0.00,,,0.00,Rainwise IP-100,2013-04-02 16:18:00,
2013-04-02 12:23:00,30.9,18.0,29.12,West,270,11.0,22.0,58,0.00,,,0.00,Rainwise IP-100,2013-04-02 16:23:00,
2013-04-02 12:28:00,32.2,18.0,29.11,WSW,247,9.0,18.0,55,0.00,,,0.00,Rainwise IP-100,2013-04-02 16:28:00,
2013-04-02 12:33:00,32.5,18.0,29.11,West,270,13.0,18.0,55,0.00,,,0.00,Rainwise IP-100,2013-04-02 16:33:00,
2013-04-02 12:38:00,32.5,18.0,29.11,WSW,247,11.0,22.0,51,0.00,,,0.00,Rainwise IP-100,2013-04-02 16:38:00,
2013-04-02 12:43:00,33.5,21.0,29.11,West,270,12.0,22.0,56,0.00,,,0.00,Rainwise IP-100,2013-04-02 16:43:00,
2013-04-02 12:48:00,33.6,18.0,29.11,WSW,247,13.0,21.0,52,0.00,,,0.00,Rainwise IP-100,2013-04-02 16:48:00,
2013-04-02 12:53:00,33.3,18.0,29.11,WSW,247,15.0,22.0,53,0.00,,,0.00,Rainwise IP-100,2013-04-02 16:53:00,
2013-04-02 12:58:00,34.9,21.0,29.11,West,270,17.0,20.0,53,0.00,,,0.00,Rainwise IP-100,2013-04-02 16:58:00,
2013-04-02 13:03:00,34.9,18.0,29.11,SW,225,11.0,18.0,50,0.00,,,0.00,Rainwise IP-100,2013-04-02 17:03:00,
2013-04-02 13:08:00,34.0,18.0,29.11,West,270,13.0,26.0,51,0.00,,,0.00,Rainwise IP-100,2013-04-02 17:08:00,
2013-04-02 13:13:00,32.9,18.0,29.11,WSW,247,6.0,21.0,51,0.00,,,0.00,Rainwise IP-100,2013-04-02 17:13:00,
2013-04-02 13:18:00,33.3,16.0,29.11,WSW,247,17.0,20.0,49,0.00,,,0.00,Rainwise IP-100,2013-04-02 17:18:00,
2013-04-02 13:23:00,34.0,18.0,29.11,WSW,247,17.0,23.0,51,0.00,,,0.00,Rainwise IP-100,2013-04-02 17:23:00,
2013-04-02 13:28:00,32.9,16.0,29.11,WSW,247,17.0,24.0,48,0.00,,,0.00,Rainwise IP-100,2013-04-02 17:28:00,
2013-04-02 13:33:00,33.3,16.0,29.11,West,270,10.0,21.0,48,0.00,,,0.00,Rainwise IP-100,2013-04-02 17:33:00,
2013-04-02 13:38:00,34.3,18.0,29.11,WSW,247,14.0,19.0,50,0.00,,,0.00,Rainwise IP-100,2013-04-02 17:38:00,
2013-04-02 13:43:00,33.9,16.0,29.11,WSW,247,12.0,22.0,46,0.00,,,0.00,Rainwise IP-100,2013-04-02 17:43:00,
2013-04-02 13:48:00,34.2,18.0,29.10,WNW,292,14.0,26.0,49,0.00,,,0.00,Rainwise IP-100,2013-04-02 17:48:00,
2013-04-02 13:53:00,34.2,16.0,29.10,West,270,18.0,24.0,46,0.00,,,0.00,Rainwise IP-100,2013-04-02 17:53:00,
2013-04-02 13:58:00,33.4,14.0,29.10,WSW,247,11.0,23.0,44,0.00,,,0.00,Rainwise IP-100,2013-04-02 17:58:00,
2013-04-02 14:03:00,33.9,21.0,29.11,WNW,292,9.0,21.0,54,0.00,,,0.00,Rainwise IP-100,2013-04-02 18:03:00,
2013-04-02 14:08:00,34.9,16.0,29.10,West,270,15.0,19.0,47,0.00,,,0.00,Rainwise IP-100,2013-04-02 18:08:00,
2013-04-02 14:13:00,34.8,18.0,29.10,SW,225,5.0,21.0,49,0.00,,,0.00,Rainwise IP-100,2013-04-02 18:13:00,
2013-04-02 14:18:00,33.4,18.0,29.11,West,270,12.0,21.0,54,0.00,,,0.00,Rainwise IP-100,2013-04-02 18:18:00,
2013-04-02 14:23:00,33.9,18.0,29.10,WSW,247,11.0,20.0,50,0.00,,,0.00,Rainwise IP-100,2013-04-02 18:23:00,
2013-04-02 14:28:00,34.5,18.0,29.10,SW,225,16.0,21.0,49,0.00,,,0.00,Rainwise IP-100,2013-04-02 18:28:00,
2013-04-02 14:33:00,33.6,18.0,29.10,West,270,21.0,23.0,49,0.00,,,0.00,Rainwise IP-100,2013-04-02 18:33:00,
2013-04-02 14:38:00,33.9,18.0,29.11,WSW,247,14.0,23.0,49,0.00,,,0.00,Rainwise IP-100,2013-04-02 18:38:00,
2013-04-02 14:43:00,33.8,16.0,29.10,West,270,17.0,29.0,47,0.00,,,0.00,Rainwise IP-100,2013-04-02 18:43:00,
2013-04-02 14:48:00,33.7,18.0,29.11,West,270,12.0,27.0,51,0.00,,,0.00,Rainwise IP-100,2013-04-02 18:48:00,
2013-04-02 14:53:00,33.9,16.0,29.10,SW,225,11.0,22.0,46,0.00,,,0.00,Rainwise IP-100,2013-04-02 18:53:00,
2013-04-02 14:58:00,35.2,18.0,29.10,West,270,7.0,24.0,49,0.00,,,0.00,Rainwise IP-100,2013-04-02 18:58:00,
2013-04-02 15:03:00,34.4,18.0,29.10,WSW,247,14.0,26.0,49,0.00,,,0.00,Rainwise IP-100,2013-04-02 19:03:00,
2013-04-02 15:08:00,35.1,18.0,29.10,SW,225,9.0,27.0,49,0.00,,,0.00,Rainwise IP-100,2013-04-02 19:08:00,
2013-04-02 15:13:00,34.1,16.0,29.10,WSW,247,11.0,19.0,47,0.00,,,0.00,Rainwise IP-100,2013-04-02 19:13:00,
2013-04-02 15:18:00,34.1,16.0,29.10,WSW,247,17.0,21.0,47,0.00,,,0.00,Rainwise IP-100,2013-04-02 19:18:00,
2013-04-02 15:24:00,34.5,16.0,29.10,WSW,247,15.0,20.0,45,0.00,,,0.00,Rainwise IP-100,2013-04-02 19:24:00,
2013-04-02 15:29:00,34.9,16.0,29.10,West,270,16.0,27.0,46,0.00,,,0.00,Rainwise IP-100,2013-04-02 19:29:00,
2013-04-02 15:34:00,33.9,18.0,29.10,WNW,292,14.0,24.0,52,0.00,,,0.00,Rainwise IP-100,2013-04-02 19:34:00,
2013-04-02 15:39:00,33.5,18.0,29.10,WNW,292,8.0,25.0,52,0.00,,,0.00,Rainwise IP-100,2013-04-02 19:39:00,
2013-04-02 15:44:00,33.7,21.0,29.09,West,270,17.0,17.0,54,0.00,,,0.00,Rainwise IP-100,2013-04-02 19:44:00,
2013-04-02 15:49:00,34.0,21.0,29.09,WNW,292,9.0,19.0,53,0.00,,,0.00,Rainwise IP-100,2013-04-02 19:49:00,
2013-04-02 15:54:00,34.9,16.0,29.09,SW,225,15.0,24.0,47,0.00,,,0.00,Rainwise IP-100,2013-04-02 19:54:00,
2013-04-02 15:59:00,35.8,21.0,29.09,WSW,247,5.0,22.0,50,0.00,,,0.00,Rainwise IP-100,2013-04-02 19:59:00,
2013-04-02 16:04:00,36.7,18.0,29.09,West,270,16.0,21.0,45,0.00,,,0.00,Rainwise IP-100,2013-04-02 20:04:00,
2013-04-02 16:09:00,35.2,18.0,29.09,WSW,247,16.0,21.0,48,0.00,,,0.00,Rainwise IP-100,2013-04-02 20:09:00,
2013-04-02 16:14:00,34.9,18.0,29.10,West,270,22.0,22.0,48,0.00,,,0.00,Rainwise IP-100,2013-04-02 20:14:00,
2013-04-02 16:19:00,34.5,18.0,29.09,West,270,9.0,26.0,48,0.00,,,0.00,Rainwise IP-100,2013-04-02 20:19:00,
2013-04-02 16:24:00,34.3,18.0,29.09,West,270,12.0,26.0,48,0.00,,,0.00,Rainwise IP-100,2013-04-02 20:24:00,
2013-04-02 16:29:00,34.7,18.0,29.10,West,270,12.0,21.0,50,0.00,,,0.00,Rainwise IP-100,2013-04-02 20:29:00,
2013-04-02 16:34:00,34.0,16.0,29.09,WSW,247,8.0,26.0,47,0.00,,,0.00,Rainwise IP-100,2013-04-02 20:34:00,
2013-04-02 16:39:00,34.3,18.0,29.10,West,270,7.0,24.0,49,0.00,,,0.00,Rainwise IP-100,2013-04-02 20:39:00,
2013-04-02 16:44:00,34.9,16.0,29.09,West,270,9.0,21.0,46,0.00,,,0.00,Rainwise IP-100,2013-04-02 20:44:00,
2013-04-02 16:49:00,34.2,18.0,29.09,WSW,247,19.0,27.0,48,0.00,,,0.00,Rainwise IP-100,2013-04-02 20:49:00,
2013-04-02 16:54:00,34.3,18.0,29.09,WSW,247,11.0,26.0,50,0.00,,,0.00,Rainwise IP-100,2013-04-02 20:54:00,
2013-04-02 16:59:00,34.5,18.0,29.10,WSW,247,16.0,30.0,50,0.00,,,0.00,Rainwise IP-100,2013-04-02 20:59:00,
2013-04-02 17:04:00,34.0,18.0,29.10,West,270,10.0,24.0,49,0.00,,,0.00,Rainwise IP-100,2013-04-02 21:04:00,
2013-04-02 17:09:00,35.1,18.0,29.10,WSW,247,16.0,25.0,48,0.00,,,0.00,Rainwise IP-100,2013-04-02 21:09:00,
2013-04-02 17:14:00,34.5,18.0,29.10,West,270,14.0,22.0,49,0.00,,,0.00,Rainwise IP-100,2013-04-02 21:14:00,
2013-04-02 17:19:00,34.7,18.0,29.10,West,270,14.0,25.0,49,0.00,,,0.00,Rainwise IP-100,2013-04-02 21:19:00,
2013-04-02 17:24:00,35.3,18.0,29.10,WSW,247,11.0,24.0,48,0.00,,,0.00,Rainwise IP-100,2013-04-02 21:24:00,
2013-04-02 17:29:00,34.7,18.0,29.11,West,270,14.0,22.0,49,0.00,,,0.00,Rainwise IP-100,2013-04-02 21:29:00,
2013-04-02 17:34:00,34.4,18.0,29.11,WNW,292,11.0,23.0,52,0.00,,,0.00,Rainwise IP-100,2013-04-02 21:34:00,
2013-04-02 17:39:00,33.9,18.0,29.11,WSW,247,26.0,26.0,49,0.00,,,0.00,Rainwise IP-100,2013-04-02 21:39:00,
2013-04-02 17:44:00,34.1,18.0,29.11,West,270,17.0,26.0,52,0.00,,,0.00,Rainwise IP-100,2013-04-02 21:44:00,
2013-04-02 17:49:00,33.7,18.0,29.11,WSW,247,22.0,26.0,52,0.00,,,0.00,Rainwise IP-100,2013-04-02 21:49:00,
2013-04-02 17:54:00,33.5,21.0,29.11,WNW,292,7.0,24.0,54,0.00,,,0.00,Rainwise IP-100,2013-04-02 21:54:00,
2013-04-02 17:59:00,33.7,21.0,29.12,WSW,247,17.0,17.0,53,0.00,,,0.00,Rainwise IP-100,2013-04-02 21:59:00,
2013-04-02 18:04:00,33.4,18.0,29.12,West,270,14.0,22.0,54,0.00,,,0.00,Rainwise IP-100,2013-04-02 22:04:00,
2013-04-02 18:09:00,33.6,21.0,29.12,West,270,13.0,22.0,54,0.00,,,0.00,Rainwise IP-100,2013-04-02 22:09:00,
2013-04-02 18:15:00,33.6,21.0,29.12,WSW,247,7.0,24.0,55,0.00,,,0.00,Rainwise IP-100,2013-04-02 22:15:00,
2013-04-02 18:20:00,33.3,21.0,29.12,WSW,247,8.0,26.0,56,0.00,,,0.00,Rainwise IP-100,2013-04-02 22:20:00,
2013-04-02 18:25:00,32.9,21.0,29.13,WSW,247,12.0,26.0,56,0.00,,,0.00,Rainwise IP-100,2013-04-02 22:25:00,
2013-04-02 18:30:00,32.6,21.0,29.13,West,270,14.0,26.0,60,0.00,,,0.00,Rainwise IP-100,2013-04-02 22:30:00,
2013-04-02 18:35:00,32.1,21.0,29.13,WSW,247,12.0,21.0,61,0.00,,,0.00,Rainwise IP-100,2013-04-02 22:35:00,
2013-04-02 18:40:00,32.2,21.0,29.13,WSW,247,13.0,20.0,61,0.00,,,0.00,Rainwise IP-100,2013-04-02 22:40:00,
2013-04-02 18:45:00,32.1,23.0,29.13,WSW,247,9.0,27.0,64,0.00,,,0.00,Rainwise IP-100,2013-04-02 22:45:00,
2013-04-02 18:50:00,31.9,21.0,29.14,West,270,14.0,21.0,62,0.00,,,0.00,Rainwise IP-100,2013-04-02 22:50:00,
2013-04-02 18:55:00,32.0,21.0,29.14,West,270,15.0,23.0,63,0.00,,,0.00,Rainwise IP-100,2013-04-02 22:55:00,
2013-04-02 19:00:00,32.2,21.0,29.14,WSW,247,17.0,19.0,63,0.00,,,0.00,Rainwise IP-100,2013-04-02 23:00:00,
2013-04-02 19:05:00,31.9,23.0,29.14,West,270,12.0,22.0,65,0.00,,,0.00,Rainwise IP-100,2013-04-02 23:05:00,
2013-04-02 19:10:00,31.1,23.0,29.14,WSW,247,12.0,24.0,71,0.00,,,0.00,Rainwise IP-100,2013-04-02 23:10:00,
2013-04-02 19:15:00,31.0,23.0,29.15,WNW,292,8.0,17.0,71,0.00,,,0.00,Rainwise IP-100,2013-04-02 23:15:00,
2013-04-02 19:20:00,31.1,23.0,29.14,WSW,247,11.0,17.0,68,0.00,,,0.00,Rainwise IP-100,2013-04-02 23:20:00,
2013-04-02 19:25:00,31.3,21.0,29.14,West,270,15.0,26.0,66,0.00,,,0.00,Rainwise IP-100,2013-04-02 23:25:00,
2013-04-02 19:30:00,31.4,21.0,29.14,West,270,13.0,24.0,65,0.00,,,0.00,Rainwise IP-100,2013-04-02 23:30:00,
2013-04-02 19:35:00,31.4,21.0,29.15,WSW,247,11.0,21.0,65,0.00,,,0.00,Rainwise IP-100,2013-04-02 23:35:00,
2013-04-02 19:40:00,31.3,21.0,29.15,West,270,11.0,22.0,65,0.00,,,0.00,Rainwise IP-100,2013-04-02 23:40:00,
2013-04-02 19:45:00,31.3,21.0,29.15,West,270,8.0,20.0,65,0.00,,,0.00,Rainwise IP-100,2013-04-02 23:45:00,
2013-04-02 19:50:00,31.4,21.0,29.15,West,270,13.0,21.0,65,0.00,,,0.00,Rainwise IP-100,2013-04-02 23:50:00,
2013-04-02 19:55:00,31.4,21.0,29.15,WSW,247,9.0,19.0,66,0.00,,,0.00,Rainwise IP-100,2013-04-02 23:55:00,
2013-04-02 20:00:00,30.5,24.0,29.16,West,270,14.0,23.0,75,0.00,,,0.00,Rainwise IP-100,2013-04-03 00:00:00,
2013-04-02 20:05:00,29.5,26.0,29.16,WNW,292,9.0,17.0,83,0.00,,,0.00,Rainwise IP-100,2013-04-03 00:05:00,
2013-04-02 20:10:00,29.1,26.0,29.16,WNW,292,11.0,13.0,87,0.00,,,0.00,Rainwise IP-100,2013-04-03 00:10:00,
2013-04-02 20:15:00,29.1,26.0,29.16,West,270,7.0,16.0,87,0.00,,,0.00,Rainwise IP-100,2013-04-03 00:15:00,
2013-04-02 20:20:00,28.9,26.0,29.16,WNW,292,6.0,14.0,88,0.00,,,0.00,Rainwise IP-100,2013-04-03 00:20:00,
2013-04-02 20:25:00,28.9,26.0,29.17,WSW,247,6.0,12.0,88,0.00,,,0.00,Rainwise IP-100,2013-04-03 00:25:00,
2013-04-02 20:30:00,29.1,26.0,29.17,WSW,247,10.0,11.0,86,0.00,,,0.00,Rainwise IP-100,2013-04-03 00:30:00,
2013-04-02 20:35:00,29.1,24.0,29.17,West,270,4.0,15.0,83,0.00,,,0.00,Rainwise IP-100,2013-04-03 00:35:00,
2013-04-02 20:40:00,29.1,24.0,29.17,WSW,247,2.0,12.0,80,0.00,,,0.00,Rainwise IP-100,2013-04-03 00:40:00,
2013-04-02 20:45:00,29.3,23.0,29.17,SW,225,2.0,12.0,77,0.00,,,0.00,Rainwise IP-100,2013-04-03 00:45:00,
2013-04-02 20:50:00,29.6,24.0,29.17,WSW,247,9.0,17.0,74,0.00,,,0.00,Rainwise IP-100,2013-04-03 00:50:00,
2013-04-02 20:55:00,29.7,23.0,29.17,WSW,247,9.0,17.0,72,0.00,,,0.00,Rainwise IP-100,2013-04-03 00:55:00,
2013-04-02 21:00:00,29.6,23.0,29.17,WSW,247,2.0,14.0,73,0.00,,,0.00,Rainwise IP-100,2013-04-03 01:00:00,
2013-04-02 21:05:00,29.6,23.0,29.17,WSW,247,7.0,17.0,73,0.00,,,0.00,Rainwise IP-100,2013-04-03 01:05:00,
2013-04-02 21:10:00,29.7,23.0,29.17,SW,225,7.0,14.0,72,0.00,,,0.00,Rainwise IP-100,2013-04-03 01:10:00,
2013-04-02 21:15:00,29.5,24.0,29.17,WSW,247,12.0,16.0,74,0.00,,,0.00,Rainwise IP-100,2013-04-03 01:15:00,
2013-04-02 21:20:00,29.7,23.0,29.18,WSW,247,6.0,17.0,73,0.00,,,0.00,Rainwise IP-100,2013-04-03 01:20:00,
2013-04-02 21:25:00,29.5,24.0,29.18,SW,225,4.0,14.0,75,0.00,,,0.00,Rainwise IP-100,2013-04-03 01:25:00,
2013-04-02 21:30:00,29.5,23.0,29.19,WSW,247,11.0,11.0,73,0.00,,,0.00,Rainwise IP-100,2013-04-03 01:30:00,
2013-04-02 21:35:00,29.4,23.0,29.19,WSW,247,6.0,13.0,73,0.00,,,0.00,Rainwise IP-100,2013-04-03 01:35:00,
2013-04-02 21:40:00,29.5,23.0,29.19,West,270,4.0,12.0,72,0.00,,,0.00,Rainwise IP-100,2013-04-03 01:40:00,
2013-04-02 21:45:00,29.5,23.0,29.19,WSW,247,4.0,9.0,72,0.00,,,0.00,Rainwise IP-100,2013-04-03 01:45:00,
2013-04-02 21:50:00,29.5,23.0,29.19,WSW,247,3.0,12.0,72,0.00,,,0.00,Rainwise IP-100,2013-04-03 01:50:00,
2013-04-02 21:55:00,29.4,23.0,29.19,West,270,4.0,11.0,72,0.00,,,0.00,Rainwise IP-100,2013-04-03 01:55:00,
2013-04-02 22:00:00,29.3,23.0,29.19,WSW,247,4.0,7.0,73,0.00,,,0.00,Rainwise IP-100,2013-04-03 02:00:00,
2013-04-02 22:05:00,29.6,23.0,29.19,WSW,247,1.0,11.0,73,0.00,,,0.00,Rainwise IP-100,2013-04-03 02:05:00,
2013-04-02 22:10:00,29.5,23.0,29.19,WSW,247,6.0,7.0,73,0.00,,,0.00,Rainwise IP-100,2013-04-03 02:10:00,
2013-04-02 22:15:00,29.3,23.0,29.19,WSW,247,4.0,12.0,73,0.00,,,0.00,Rainwise IP-100,2013-04-03 02:15:00,
2013-04-02 22:20:00,29.2,23.0,29.19,WSW,247,6.0,10.0,74,0.00,,,0.00,Rainwise IP-100,2013-04-03 02:20:00,
2013-04-02 22:25:00,28.9,23.0,29.19,WSW,247,6.0,7.0,74,0.00,,,0.00,Rainwise IP-100,2013-04-03 02:25:00,
2013-04-02 22:30:00,29.2,23.0,29.19,WSW,247,6.0,9.0,73,0.00,,,0.00,Rainwise IP-100,2013-04-03 02:30:00,
2013-04-02 22:35:00,29.2,23.0,29.19,WSW,247,6.0,10.0,73,0.00,,,0.00,Rainwise IP-100,2013-04-03 02:35:00,
2013-04-02 22:40:00,29.1,23.0,29.18,WSW,247,3.0,9.0,73,0.00,,,0.00,Rainwise IP-100,2013-04-03 02:40:00,
2013-04-02 22:45:00,28.9,23.0,29.18,WSW,247,6.0,8.0,73,0.00,,,0.00,Rainwise IP-100,2013-04-03 02:45:00,
2013-04-02 22:50:00,28.9,23.0,29.18,WSW,247,9.0,9.0,74,0.00,,,0.00,Rainwise IP-100,2013-04-03 02:50:00,
2013-04-02 22:55:00,29.1,23.0,29.18,WSW,247,4.0,11.0,73,0.00,,,0.00,Rainwise IP-100,2013-04-03 02:55:00,
2013-04-02 23:00:00,28.9,23.0,29.18,WSW,247,7.0,10.0,74,0.00,,,0.00,Rainwise IP-100,2013-04-03 03:00:00,
2013-04-02 23:05:00,29.1,23.0,29.18,WSW,247,6.0,12.0,74,0.00,,,0.00,Rainwise IP-100,2013-04-03 03:05:00,
2013-04-02 23:10:00,29.0,23.0,29.17,WSW,247,4.0,10.0,74,0.00,,,0.00,Rainwise IP-100,2013-04-03 03:10:00,
2013-04-02 23:15:00,28.9,23.0,29.17,SW,225,4.0,11.0,74,0.00,,,0.00,Rainwise IP-100,2013-04-03 03:15:00,
2013-04-02 23:20:00,28.9,23.0,29.17,SW,225,7.0,10.0,73,0.00,,,0.00,Rainwise IP-100,2013-04-03 03:20:00,
2013-04-02 23:25:00,28.9,23.0,29.17,SW,225,5.0,11.0,73,0.00,,,0.00,Rainwise IP-100,2013-04-03 03:25:00,
2013-04-02 23:30:00,28.9,23.0,29.17,WSW,247,4.0,9.0,74,0.00,,,0.00,Rainwise IP-100,2013-04-03 03:30:00,
2013-04-02 23:35:00,28.9,23.0,29.17,WSW,247,9.0,11.0,74,0.00,,,0.00,Rainwise IP-100,2013-04-03 03:35:00,
2013-04-02 23:41:00,29.1,23.0,29.17,SW,225,4.0,16.0,73,0.00,,,0.00,Rainwise IP-100,2013-04-03 03:41:00,
2013-04-02 23:46:00,29.1,23.0,29.17,WSW,247,9.0,14.0,73,0.00,,,0.00,Rainwise IP-100,2013-04-03 03:46:00,
2013-04-02 23:51:00,28.9,23.0,29.17,WSW,247,13.0,13.0,73,0.00,,,0.00,Rainwise IP-100,2013-04-03 03:51:00,
2013-04-02 23:56:00,29.0,23.0,29.17,WSW,247,4.0,14.0,72,0.00,,,0.00,Rainwise IP-100,2013-04-03 03:56:00,